sensor_id;sensor_type;location;lat;lon;timestamp;P1;durP1;ratioP1;P2;durP2;ratioP2
8040;SDS011;4063;48.140;10.250;2022-08-21T00:02:15;9.32;;;6.38;;
8040;SDS011;4063;48.140;10.250;2022-08-21T00:04:41;10.20;;;6.50;;
8040;SDS011;4063;48.140;10.250;2022-08-21T00:07:07;9.63;;;7.78;;
8040;SDS011;4063;48.140;10.250;2022-08-21T00:09:33;8.20;;;6.65;;
8040;SDS011;4063;48.140;10.250;2022-08-21T00:11:59;7.07;;;6.38;;
8040;SDS011;4063;48.140;10.250;2022-08-21T00:14:25;7.55;;;6.80;;
8040;SDS011;4063;48.140;10.250;2022-08-21T00:16:51;8.23;;;6.85;;
8040;SDS011;4063;48.140;10.250;2022-08-21T00:19:17;7.47;;;6.68;;
8040;SDS011;4063;48.140;10.250;2022-08-21T00:21:43;8.20;;;6.30;;
8040;SDS011;4063;48.140;10.250;2022-08-21T00:24:09;9.13;;;6.65;;
8040;SDS011;4063;48.140;10.250;2022-08-21T00:26:35;7.95;;;6.50;;
8040;SDS011;4063;48.140;10.250;2022-08-21T00:29:01;8.10;;;7.30;;
8040;SDS011;4063;48.140;10.250;2022-08-21T00:31:27;10.85;;;6.50;;
8040;SDS011;4063;48.140;10.250;2022-08-21T00:33:53;7.15;;;6.35;;
8040;SDS011;4063;48.140;10.250;2022-08-21T00:36:19;8.02;;;7.22;;
8040;SDS011;4063;48.140;10.250;2022-08-21T00:38:45;9.48;;;7.47;;
8040;SDS011;4063;48.140;10.250;2022-08-21T00:41:11;8.85;;;7.18;;
8040;SDS011;4063;48.140;10.250;2022-08-21T00:43:38;7.82;;;7.03;;
8040;SDS011;4063;48.140;10.250;2022-08-21T00:46:05;10.55;;;7.40;;
8040;SDS011;4063;48.140;10.250;2022-08-21T00:48:32;8.45;;;7.55;;
8040;SDS011;4063;48.140;10.250;2022-08-21T00:51:03;10.55;;;7.65;;
8040;SDS011;4063;48.140;10.250;2022-08-21T00:53:29;8.52;;;7.68;;
8040;SDS011;4063;48.140;10.250;2022-08-21T00:55:56;8.18;;;7.38;;
8040;SDS011;4063;48.140;10.250;2022-08-21T00:58:22;10.35;;;7.43;;
8040;SDS011;4063;48.140;10.250;2022-08-21T01:00:49;8.50;;;7.68;;
8040;SDS011;4063;48.140;10.250;2022-08-21T01:03:17;10.25;;;7.72;;
8040;SDS011;4063;48.140;10.250;2022-08-21T01:05:44;10.32;;;7.10;;
8040;SDS011;4063;48.140;10.250;2022-08-21T01:08:11;8.77;;;7.28;;
8040;SDS011;4063;48.140;10.250;2022-08-21T01:10:37;8.38;;;7.40;;
8040;SDS011;4063;48.140;10.250;2022-08-21T01:13:04;11.52;;;7.60;;
8040;SDS011;4063;48.140;10.250;2022-08-21T01:15:34;7.90;;;7.18;;
8040;SDS011;4063;48.140;10.250;2022-08-21T01:18:00;8.02;;;7.20;;
8040;SDS011;4063;48.140;10.250;2022-08-21T01:20:26;9.40;;;6.60;;
8040;SDS011;4063;48.140;10.250;2022-08-21T01:22:52;7.88;;;6.50;;
8040;SDS011;4063;48.140;10.250;2022-08-21T01:25:18;6.57;;;5.95;;
8040;SDS011;4063;48.140;10.250;2022-08-21T01:27:44;7.97;;;6.38;;
8040;SDS011;4063;48.140;10.250;2022-08-21T01:30:12;8.43;;;6.70;;
8040;SDS011;4063;48.140;10.250;2022-08-21T01:32:38;9.13;;;6.72;;
8040;SDS011;4063;48.140;10.250;2022-08-21T01:35:05;9.43;;;6.78;;
8040;SDS011;4063;48.140;10.250;2022-08-21T01:37:31;7.50;;;6.60;;
8040;SDS011;4063;48.140;10.250;2022-08-21T01:39:57;6.70;;;5.90;;
8040;SDS011;4063;48.140;10.250;2022-08-21T01:42:23;9.80;;;6.50;;
8040;SDS011;4063;48.140;10.250;2022-08-21T01:44:49;7.90;;;6.93;;
8040;SDS011;4063;48.140;10.250;2022-08-21T01:47:16;7.35;;;6.63;;
8040;SDS011;4063;48.140;10.250;2022-08-21T01:49:42;7.90;;;7.10;;
8040;SDS011;4063;48.140;10.250;2022-08-21T01:52:08;10.35;;;6.95;;
8040;SDS011;4063;48.140;10.250;2022-08-21T01:54:35;7.95;;;7.03;;
8040;SDS011;4063;48.140;10.250;2022-08-21T01:57:01;12.20;;;7.07;;
8040;SDS011;4063;48.140;10.250;2022-08-21T01:59:27;8.13;;;6.90;;
8040;SDS011;4063;48.140;10.250;2022-08-21T02:01:53;10.07;;;7.95;;
8040;SDS011;4063;48.140;10.250;2022-08-21T02:04:19;10.38;;;7.32;;
8040;SDS011;4063;48.140;10.250;2022-08-21T02:06:46;8.63;;;7.20;;
8040;SDS011;4063;48.140;10.250;2022-08-21T02:09:12;13.82;;;8.07;;
8040;SDS011;4063;48.140;10.250;2022-08-21T02:11:39;14.05;;;7.95;;
8040;SDS011;4063;48.140;10.250;2022-08-21T02:14:06;8.55;;;7.70;;
8040;SDS011;4063;48.140;10.250;2022-08-21T02:16:32;9.70;;;8.20;;
8040;SDS011;4063;48.140;10.250;2022-08-21T02:18:59;10.70;;;7.50;;
8040;SDS011;4063;48.140;10.250;2022-08-21T02:21:25;9.80;;;7.88;;
8040;SDS011;4063;48.140;10.250;2022-08-21T02:23:51;11.52;;;8.00;;
8040;SDS011;4063;48.140;10.250;2022-08-21T02:26:17;8.85;;;8.02;;
8040;SDS011;4063;48.140;10.250;2022-08-21T02:28:43;10.35;;;8.52;;
8040;SDS011;4063;48.140;10.250;2022-08-21T02:31:09;12.18;;;9.18;;
8040;SDS011;4063;48.140;10.250;2022-08-21T02:33:35;12.02;;;8.80;;
8040;SDS011;4063;48.140;10.250;2022-08-21T02:36:02;12.30;;;9.23;;
8040;SDS011;4063;48.140;10.250;2022-08-21T02:38:30;10.63;;;9.02;;
8040;SDS011;4063;48.140;10.250;2022-08-21T02:40:57;12.45;;;9.07;;
8040;SDS011;4063;48.140;10.250;2022-08-21T02:43:24;12.88;;;8.25;;
8040;SDS011;4063;48.140;10.250;2022-08-21T02:45:51;10.68;;;9.10;;
8040;SDS011;4063;48.140;10.250;2022-08-21T02:48:19;11.52;;;8.75;;
8040;SDS011;4063;48.140;10.250;2022-08-21T02:50:47;9.27;;;8.10;;
8040;SDS011;4063;48.140;10.250;2022-08-21T02:53:14;15.32;;;8.73;;
8040;SDS011;4063;48.140;10.250;2022-08-21T02:55:41;10.63;;;9.32;;
8040;SDS011;4063;48.140;10.250;2022-08-21T02:58:08;12.77;;;9.23;;
8040;SDS011;4063;48.140;10.250;2022-08-21T03:00:34;13.00;;;9.02;;
8040;SDS011;4063;48.140;10.250;2022-08-21T03:03:00;12.13;;;9.27;;
8040;SDS011;4063;48.140;10.250;2022-08-21T03:05:27;9.20;;;8.25;;
8040;SDS011;4063;48.140;10.250;2022-08-21T03:07:56;11.55;;;8.77;;
8040;SDS011;4063;48.140;10.250;2022-08-21T03:10:23;11.73;;;9.80;;
8040;SDS011;4063;48.140;10.250;2022-08-21T03:12:49;11.80;;;9.45;;
8040;SDS011;4063;48.140;10.250;2022-08-21T03:15:17;10.50;;;9.32;;
8040;SDS011;4063;48.140;10.250;2022-08-21T03:17:44;15.50;;;8.75;;
8040;SDS011;4063;48.140;10.250;2022-08-21T03:20:10;16.65;;;9.57;;
8040;SDS011;4063;48.140;10.250;2022-08-21T03:22:37;12.82;;;9.32;;
8040;SDS011;4063;48.140;10.250;2022-08-21T03:25:03;12.05;;;9.65;;
8040;SDS011;4063;48.140;10.250;2022-08-21T03:27:29;13.45;;;8.50;;
8040;SDS011;4063;48.140;10.250;2022-08-21T03:29:56;20.95;;;8.75;;
8040;SDS011;4063;48.140;10.250;2022-08-21T03:32:22;21.15;;;9.10;;
8040;SDS011;4063;48.140;10.250;2022-08-21T03:34:48;10.77;;;9.02;;
8040;SDS011;4063;48.140;10.250;2022-08-21T03:37:14;26.58;;;18.65;;
8040;SDS011;4063;48.140;10.250;2022-08-21T03:39:41;16.98;;;12.55;;
8040;SDS011;4063;48.140;10.250;2022-08-21T03:42:07;13.40;;;9.90;;
8040;SDS011;4063;48.140;10.250;2022-08-21T03:44:33;14.10;;;9.32;;
8040;SDS011;4063;48.140;10.250;2022-08-21T03:47:00;10.90;;;8.90;;
8040;SDS011;4063;48.140;10.250;2022-08-21T03:49:26;10.47;;;8.70;;
8040;SDS011;4063;48.140;10.250;2022-08-21T03:51:52;10.30;;;9.20;;
8040;SDS011;4063;48.140;10.250;2022-08-21T03:54:18;12.40;;;9.00;;
8040;SDS011;4063;48.140;10.250;2022-08-21T03:56:44;13.70;;;9.38;;
8040;SDS011;4063;48.140;10.250;2022-08-21T03:59:10;15.93;;;10.33;;
8040;SDS011;4063;48.140;10.250;2022-08-21T04:01:37;18.43;;;10.47;;
8040;SDS011;4063;48.140;10.250;2022-08-21T04:04:03;14.27;;;9.73;;
8040;SDS011;4063;48.140;10.250;2022-08-21T04:06:30;16.08;;;10.48;;
8040;SDS011;4063;48.140;10.250;2022-08-21T04:08:56;11.77;;;9.23;;
8040;SDS011;4063;48.140;10.250;2022-08-21T04:11:22;11.20;;;9.37;;
8040;SDS011;4063;48.140;10.250;2022-08-21T04:13:48;11.30;;;9.57;;
8040;SDS011;4063;48.140;10.250;2022-08-21T04:16:14;11.50;;;9.83;;
8040;SDS011;4063;48.140;10.250;2022-08-21T04:18:40;15.73;;;10.47;;
8040;SDS011;4063;48.140;10.250;2022-08-21T04:21:06;13.47;;;9.70;;
8040;SDS011;4063;48.140;10.250;2022-08-21T04:23:33;11.80;;;9.03;;
8040;SDS011;4063;48.140;10.250;2022-08-21T04:25:59;14.27;;;9.43;;
8040;SDS011;4063;48.140;10.250;2022-08-21T04:28:25;24.73;;;10.47;;
8040;SDS011;4063;48.140;10.250;2022-08-21T04:30:52;22.43;;;10.50;;
8040;SDS011;4063;48.140;10.250;2022-08-21T04:33:18;11.27;;;9.40;;
8040;SDS011;4063;48.140;10.250;2022-08-21T04:35:44;10.80;;;8.67;;
8040;SDS011;4063;48.140;10.250;2022-08-21T04:38:10;11.53;;;9.43;;
8040;SDS011;4063;48.140;10.250;2022-08-21T04:40:36;15.30;;;9.90;;
8040;SDS011;4063;48.140;10.250;2022-08-21T04:43:04;11.27;;;9.37;;
8040;SDS011;4063;48.140;10.250;2022-08-21T04:45:32;17.80;;;10.20;;
8040;SDS011;4063;48.140;10.250;2022-08-21T04:47:59;12.47;;;10.00;;
8040;SDS011;4063;48.140;10.250;2022-08-21T04:50:36;9.90;;;8.87;;
8040;SDS011;4063;48.140;10.250;2022-08-21T04:53:07;10.40;;;8.87;;
8040;SDS011;4063;48.140;10.250;2022-08-21T04:55:34;13.50;;;8.37;;
8040;SDS011;4063;48.140;10.250;2022-08-21T04:58:02;10.60;;;8.40;;
8040;SDS011;4063;48.140;10.250;2022-08-21T05:00:28;9.07;;;7.68;;
8040;SDS011;4063;48.140;10.250;2022-08-21T05:02:54;8.40;;;7.47;;
8040;SDS011;4063;48.140;10.250;2022-08-21T05:05:23;10.87;;;7.70;;
8040;SDS011;4063;48.140;10.250;2022-08-21T05:07:50;8.17;;;7.37;;
8040;SDS011;4063;48.140;10.250;2022-08-21T05:10:16;8.80;;;8.00;;
8040;SDS011;4063;48.140;10.250;2022-08-21T05:12:42;10.60;;;8.30;;
8040;SDS011;4063;48.140;10.250;2022-08-21T05:15:10;8.87;;;7.87;;
8040;SDS011;4063;48.140;10.250;2022-08-21T05:17:37;9.50;;;7.93;;
8040;SDS011;4063;48.140;10.250;2022-08-21T05:20:03;9.73;;;7.57;;
8040;SDS011;4063;48.140;10.250;2022-08-21T05:22:29;8.00;;;7.28;;
8040;SDS011;4063;48.140;10.250;2022-08-21T05:24:56;7.78;;;7.07;;
8040;SDS011;4063;48.140;10.250;2022-08-21T05:27:23;10.93;;;7.20;;
8040;SDS011;4063;48.140;10.250;2022-08-21T05:29:49;8.10;;;7.40;;
8040;SDS011;4063;48.140;10.250;2022-08-21T05:32:15;7.28;;;6.32;;
8040;SDS011;4063;48.140;10.250;2022-08-21T05:34:41;7.72;;;7.00;;
8040;SDS011;4063;48.140;10.250;2022-08-21T05:37:07;14.25;;;7.72;;
8040;SDS011;4063;48.140;10.250;2022-08-21T05:39:35;7.40;;;6.68;;
8040;SDS011;4063;48.140;10.250;2022-08-21T05:42:01;8.52;;;7.70;;
8040;SDS011;4063;48.140;10.250;2022-08-21T05:44:27;8.98;;;7.18;;
8040;SDS011;4063;48.140;10.250;2022-08-21T05:46:53;9.60;;;7.18;;
8040;SDS011;4063;48.140;10.250;2022-08-21T05:49:19;8.25;;;7.43;;
8040;SDS011;4063;48.140;10.250;2022-08-21T05:51:45;7.85;;;7.15;;
8040;SDS011;4063;48.140;10.250;2022-08-21T05:54:11;7.35;;;6.65;;
8040;SDS011;4063;48.140;10.250;2022-08-21T05:56:37;7.68;;;5.93;;
8040;SDS011;4063;48.140;10.250;2022-08-21T05:59:03;13.77;;;6.45;;
8040;SDS011;4063;48.140;10.250;2022-08-21T06:01:29;6.70;;;6.13;;
8040;SDS011;4063;48.140;10.250;2022-08-21T06:03:55;6.60;;;5.70;;
8040;SDS011;4063;48.140;10.250;2022-08-21T06:06:21;6.57;;;5.05;;
8040;SDS011;4063;48.140;10.250;2022-08-21T06:08:47;6.40;;;5.90;;
8040;SDS011;4063;48.140;10.250;2022-08-21T06:11:13;5.65;;;4.95;;
8040;SDS011;4063;48.140;10.250;2022-08-21T06:13:39;7.70;;;4.45;;
8040;SDS011;4063;48.140;10.250;2022-08-21T06:16:10;4.72;;;4.35;;
8040;SDS011;4063;48.140;10.250;2022-08-21T06:18:38;4.32;;;3.97;;
8040;SDS011;4063;48.140;10.250;2022-08-21T06:21:04;5.22;;;4.15;;
8040;SDS011;4063;48.140;10.250;2022-08-21T06:23:32;4.70;;;4.13;;
8040;SDS011;4063;48.140;10.250;2022-08-21T06:25:59;9.68;;;4.13;;
8040;SDS011;4063;48.140;10.250;2022-08-21T06:28:25;4.88;;;4.05;;
8040;SDS011;4063;48.140;10.250;2022-08-21T06:30:50;5.82;;;4.35;;
8040;SDS011;4063;48.140;10.250;2022-08-21T06:33:17;4.93;;;4.53;;
8040;SDS011;4063;48.140;10.250;2022-08-21T06:35:43;4.55;;;4.25;;
8040;SDS011;4063;48.140;10.250;2022-08-21T06:38:09;4.60;;;4.20;;
8040;SDS011;4063;48.140;10.250;2022-08-21T06:40:35;4.90;;;4.40;;
8040;SDS011;4063;48.140;10.250;2022-08-21T06:43:05;4.20;;;3.90;;
8040;SDS011;4063;48.140;10.250;2022-08-21T06:45:31;5.88;;;3.85;;
8040;SDS011;4063;48.140;10.250;2022-08-21T06:47:57;4.50;;;3.97;;
8040;SDS011;4063;48.140;10.250;2022-08-21T06:50:23;4.85;;;3.90;;
8040;SDS011;4063;48.140;10.250;2022-08-21T06:52:49;5.03;;;4.15;;
8040;SDS011;4063;48.140;10.250;2022-08-21T06:55:15;4.80;;;3.70;;
8040;SDS011;4063;48.140;10.250;2022-08-21T06:57:41;4.03;;;3.70;;
8040;SDS011;4063;48.140;10.250;2022-08-21T07:00:07;5.00;;;3.55;;
8040;SDS011;4063;48.140;10.250;2022-08-21T07:02:34;4.88;;;3.78;;
8040;SDS011;4063;48.140;10.250;2022-08-21T07:05:00;4.28;;;3.88;;
8040;SDS011;4063;48.140;10.250;2022-08-21T07:07:26;5.00;;;3.70;;
8040;SDS011;4063;48.140;10.250;2022-08-21T07:09:52;4.28;;;3.97;;
8040;SDS011;4063;48.140;10.250;2022-08-21T07:12:18;3.97;;;3.55;;
8040;SDS011;4063;48.140;10.250;2022-08-21T07:14:44;3.45;;;3.22;;
8040;SDS011;4063;48.140;10.250;2022-08-21T07:17:10;3.92;;;3.30;;
8040;SDS011;4063;48.140;10.250;2022-08-21T07:19:36;3.67;;;3.38;;
8040;SDS011;4063;48.140;10.250;2022-08-21T07:22:02;5.25;;;3.63;;
8040;SDS011;4063;48.140;10.250;2022-08-21T07:24:28;6.38;;;3.30;;
8040;SDS011;4063;48.140;10.250;2022-08-21T07:26:54;8.98;;;3.70;;
8040;SDS011;4063;48.140;10.250;2022-08-21T07:29:20;3.97;;;3.30;;
8040;SDS011;4063;48.140;10.250;2022-08-21T07:31:47;3.30;;;3.00;;
8040;SDS011;4063;48.140;10.250;2022-08-21T07:34:13;4.43;;;3.00;;
8040;SDS011;4063;48.140;10.250;2022-08-21T07:36:39;3.88;;;2.88;;
8040;SDS011;4063;48.140;10.250;2022-08-21T07:39:05;4.68;;;3.30;;
8040;SDS011;4063;48.140;10.250;2022-08-21T07:41:32;3.85;;;3.20;;
8040;SDS011;4063;48.140;10.250;2022-08-21T07:44:00;4.63;;;3.13;;
8040;SDS011;4063;48.140;10.250;2022-08-21T07:46:26;3.60;;;3.30;;
8040;SDS011;4063;48.140;10.250;2022-08-21T07:48:52;3.55;;;3.17;;
8040;SDS011;4063;48.140;10.250;2022-08-21T07:51:19;4.40;;;3.42;;
8040;SDS011;4063;48.140;10.250;2022-08-21T07:53:49;5.43;;;3.58;;
8040;SDS011;4063;48.140;10.250;2022-08-21T07:56:16;6.82;;;3.45;;
8040;SDS011;4063;48.140;10.250;2022-08-21T07:58:42;3.50;;;3.20;;
8040;SDS011;4063;48.140;10.250;2022-08-21T08:01:08;5.35;;;3.42;;
8040;SDS011;4063;48.140;10.250;2022-08-21T08:03:34;3.90;;;3.20;;
8040;SDS011;4063;48.140;10.250;2022-08-21T08:06:00;4.03;;;3.45;;
8040;SDS011;4063;48.140;10.250;2022-08-21T08:08:29;4.38;;;3.33;;
8040;SDS011;4063;48.140;10.250;2022-08-21T08:10:55;4.25;;;3.70;;
8040;SDS011;4063;48.140;10.250;2022-08-21T08:13:22;5.30;;;3.40;;
8040;SDS011;4063;48.140;10.250;2022-08-21T08:15:48;4.10;;;3.55;;
8040;SDS011;4063;48.140;10.250;2022-08-21T08:18:14;4.70;;;3.70;;
8040;SDS011;4063;48.140;10.250;2022-08-21T08:20:39;3.67;;;3.38;;
8040;SDS011;4063;48.140;10.250;2022-08-21T08:23:06;4.45;;;3.67;;
8040;SDS011;4063;48.140;10.250;2022-08-21T08:25:32;4.55;;;3.20;;
8040;SDS011;4063;48.140;10.250;2022-08-21T08:27:58;3.30;;;2.90;;
8040;SDS011;4063;48.140;10.250;2022-08-21T08:30:24;3.80;;;3.40;;
8040;SDS011;4063;48.140;10.250;2022-08-21T08:32:50;3.92;;;3.50;;
8040;SDS011;4063;48.140;10.250;2022-08-21T08:35:16;6.05;;;3.80;;
8040;SDS011;4063;48.140;10.250;2022-08-21T08:37:42;6.85;;;3.33;;
8040;SDS011;4063;48.140;10.250;2022-08-21T08:40:11;5.97;;;4.28;;
8040;SDS011;4063;48.140;10.250;2022-08-21T08:42:38;4.82;;;4.22;;
8040;SDS011;4063;48.140;10.250;2022-08-21T08:47:31;3.90;;;3.60;;
8040;SDS011;4063;48.140;10.250;2022-08-21T08:50:00;4.93;;;3.58;;
8040;SDS011;4063;48.140;10.250;2022-08-21T08:52:29;4.60;;;3.92;;
8040;SDS011;4063;48.140;10.250;2022-08-21T08:55:01;5.75;;;3.45;;
8040;SDS011;4063;48.140;10.250;2022-08-21T08:57:28;4.22;;;3.83;;
8040;SDS011;4063;48.140;10.250;2022-08-21T08:59:56;4.97;;;3.42;;
8040;SDS011;4063;48.140;10.250;2022-08-21T09:02:22;4.30;;;3.63;;
8040;SDS011;4063;48.140;10.250;2022-08-21T09:04:49;6.03;;;3.40;;
8040;SDS011;4063;48.140;10.250;2022-08-21T09:07:35;4.00;;;3.58;;
8040;SDS011;4063;48.140;10.250;2022-08-21T09:10:16;4.00;;;3.50;;
8040;SDS011;4063;48.140;10.250;2022-08-21T09:18:04;6.43;;;3.25;;
8040;SDS011;4063;48.140;10.250;2022-08-21T09:25:58;4.63;;;3.25;;
8040;SDS011;4063;48.140;10.250;2022-08-21T09:28:25;5.88;;;3.13;;
8040;SDS011;4063;48.140;10.250;2022-08-21T09:30:54;5.20;;;3.35;;
8040;SDS011;4063;48.140;10.250;2022-08-21T09:33:20;3.72;;;3.08;;
8040;SDS011;4063;48.140;10.250;2022-08-21T09:35:53;6.35;;;3.50;;
8040;SDS011;4063;48.140;10.250;2022-08-21T09:38:24;7.85;;;3.67;;
8040;SDS011;4063;48.140;10.250;2022-08-21T09:40:57;3.90;;;3.38;;
8040;SDS011;4063;48.140;10.250;2022-08-21T09:43:23;5.05;;;3.03;;
8040;SDS011;4063;48.140;10.250;2022-08-21T09:46:03;5.90;;;3.50;;
8040;SDS011;4063;48.140;10.250;2022-08-21T09:48:29;4.78;;;3.00;;
8040;SDS011;4063;48.140;10.250;2022-08-21T09:51:05;4.53;;;3.40;;
8040;SDS011;4063;48.140;10.250;2022-08-21T09:53:31;5.60;;;3.42;;
8040;SDS011;4063;48.140;10.250;2022-08-21T09:56:05;5.80;;;3.35;;
8040;SDS011;4063;48.140;10.250;2022-08-21T09:58:50;5.30;;;3.20;;
8040;SDS011;4063;48.140;10.250;2022-08-21T10:01:17;6.43;;;3.28;;
8040;SDS011;4063;48.140;10.250;2022-08-21T10:03:44;9.15;;;3.65;;
8040;SDS011;4063;48.140;10.250;2022-08-21T10:06:22;7.20;;;3.60;;
8040;SDS011;4063;48.140;10.250;2022-08-21T10:08:48;5.55;;;3.45;;
8040;SDS011;4063;48.140;10.250;2022-08-21T10:11:14;7.00;;;3.05;;
8040;SDS011;4063;48.140;10.250;2022-08-21T10:13:44;4.78;;;3.78;;
8040;SDS011;4063;48.140;10.250;2022-08-21T10:16:15;5.55;;;3.15;;
8040;SDS011;4063;48.140;10.250;2022-08-21T10:18:44;5.85;;;3.45;;
8040;SDS011;4063;48.140;10.250;2022-08-21T10:26:25;6.25;;;3.22;;
8040;SDS011;4063;48.140;10.250;2022-08-21T10:31:51;3.65;;;2.47;;
8040;SDS011;4063;48.140;10.250;2022-08-21T10:39:53;5.32;;;2.70;;
8040;SDS011;4063;48.140;10.250;2022-08-21T10:52:46;3.95;;;3.22;;
8040;SDS011;4063;48.140;10.250;2022-08-21T10:55:19;4.45;;;2.67;;
8040;SDS011;4063;48.140;10.250;2022-08-21T10:57:50;3.75;;;2.65;;
8040;SDS011;4063;48.140;10.250;2022-08-21T11:00:21;4.03;;;2.85;;
8040;SDS011;4063;48.140;10.250;2022-08-21T11:05:14;3.35;;;2.85;;
8040;SDS011;4063;48.140;10.250;2022-08-21T11:07:55;7.45;;;2.60;;
8040;SDS011;4063;48.140;10.250;2022-08-21T11:10:24;4.63;;;2.67;;
8040;SDS011;4063;48.140;10.250;2022-08-21T11:12:56;4.53;;;2.50;;
8040;SDS011;4063;48.140;10.250;2022-08-21T11:18:31;5.32;;;2.60;;
8040;SDS011;4063;48.140;10.250;2022-08-21T11:21:03;6.30;;;2.83;;
8040;SDS011;4063;48.140;10.250;2022-08-21T11:23:47;4.05;;;2.67;;
8040;SDS011;4063;48.140;10.250;2022-08-21T11:26:27;5.13;;;2.50;;
8040;SDS011;4063;48.140;10.250;2022-08-21T11:28:58;5.95;;;2.47;;
8040;SDS011;4063;48.140;10.250;2022-08-21T11:36:34;4.00;;;2.38;;
8040;SDS011;4063;48.140;10.250;2022-08-21T11:41:34;5.18;;;2.17;;
8040;SDS011;4063;48.140;10.250;2022-08-21T11:44:04;4.47;;;2.20;;
8040;SDS011;4063;48.140;10.250;2022-08-21T11:46:53;3.28;;;2.22;;
8040;SDS011;4063;48.140;10.250;2022-08-21T11:52:07;2.55;;;2.00;;
8040;SDS011;4063;48.140;10.250;2022-08-21T11:54:38;3.28;;;2.20;;
8040;SDS011;4063;48.140;10.250;2022-08-21T11:57:14;5.00;;;2.50;;
8040;SDS011;4063;48.140;10.250;2022-08-21T12:00:28;3.75;;;2.00;;
8040;SDS011;4063;48.140;10.250;2022-08-21T12:02:29;3.03;;;2.72;;
8040;SDS011;4063;48.140;10.250;2022-08-21T12:05:02;5.57;;;2.20;;
8040;SDS011;4063;48.140;10.250;2022-08-21T12:09:55;2.97;;;2.00;;
8040;SDS011;4063;48.140;10.250;2022-08-21T12:12:26;3.40;;;2.13;;
8040;SDS011;4063;48.140;10.250;2022-08-21T12:15:04;3.38;;;2.20;;
8040;SDS011;4063;48.140;10.250;2022-08-21T12:17:35;2.58;;;1.90;;
8040;SDS011;4063;48.140;10.250;2022-08-21T12:22:49;3.05;;;2.10;;
8040;SDS011;4063;48.140;10.250;2022-08-21T12:25:18;2.97;;;2.13;;
8040;SDS011;4063;48.140;10.250;2022-08-21T12:33:09;3.83;;;2.20;;
8040;SDS011;4063;48.140;10.250;2022-08-21T12:35:44;2.55;;;2.20;;
8040;SDS011;4063;48.140;10.250;2022-08-21T12:38:22;3.60;;;2.20;;
8040;SDS011;4063;48.140;10.250;2022-08-21T12:40:56;3.85;;;2.17;;
8040;SDS011;4063;48.140;10.250;2022-08-21T12:43:28;2.55;;;1.80;;
8040;SDS011;4063;48.140;10.250;2022-08-21T12:45:56;3.10;;;2.30;;
8040;SDS011;4063;48.140;10.250;2022-08-21T12:56:03;4.20;;;2.10;;
8040;SDS011;4063;48.140;10.250;2022-08-21T12:58:30;3.03;;;2.00;;
8040;SDS011;4063;48.140;10.250;2022-08-21T13:01:04;2.25;;;2.05;;
8040;SDS011;4063;48.140;10.250;2022-08-21T13:03:31;2.40;;;2.05;;
8040;SDS011;4063;48.140;10.250;2022-08-21T13:06:00;2.85;;;2.00;;
8040;SDS011;4063;48.140;10.250;2022-08-21T13:08:27;2.83;;;1.95;;
8040;SDS011;4063;48.140;10.250;2022-08-21T13:11:01;4.00;;;1.90;;
8040;SDS011;4063;48.140;10.250;2022-08-21T13:13:27;4.65;;;2.03;;
8040;SDS011;4063;48.140;10.250;2022-08-21T13:15:57;5.55;;;2.00;;
8040;SDS011;4063;48.140;10.250;2022-08-21T13:18:25;6.65;;;2.08;;
8040;SDS011;4063;48.140;10.250;2022-08-21T13:21:01;3.53;;;1.90;;
8040;SDS011;4063;48.140;10.250;2022-08-21T13:23:29;3.70;;;2.47;;
8040;SDS011;4063;48.140;10.250;2022-08-21T13:25:55;2.72;;;2.03;;
8040;SDS011;4063;48.140;10.250;2022-08-21T13:28:22;5.63;;;2.13;;
8040;SDS011;4063;48.140;10.250;2022-08-21T13:30:52;2.85;;;2.17;;
8040;SDS011;4063;48.140;10.250;2022-08-21T13:33:22;2.95;;;2.17;;
8040;SDS011;4063;48.140;10.250;2022-08-21T13:35:51;5.18;;;2.40;;
8040;SDS011;4063;48.140;10.250;2022-08-21T13:38:21;4.25;;;2.20;;
8040;SDS011;4063;48.140;10.250;2022-08-21T13:40:49;3.55;;;2.10;;
8040;SDS011;4063;48.140;10.250;2022-08-21T13:43:17;2.72;;;2.08;;
8040;SDS011;4063;48.140;10.250;2022-08-21T13:45:46;2.70;;;2.15;;
8040;SDS011;4063;48.140;10.250;2022-08-21T13:48:12;3.35;;;2.33;;
8040;SDS011;4063;48.140;10.250;2022-08-21T13:50:39;4.28;;;2.13;;
8040;SDS011;4063;48.140;10.250;2022-08-21T13:53:07;3.47;;;1.90;;
8040;SDS011;4063;48.140;10.250;2022-08-21T13:55:35;3.53;;;2.03;;
8040;SDS011;4063;48.140;10.250;2022-08-21T13:58:03;3.20;;;2.13;;
8040;SDS011;4063;48.140;10.250;2022-08-21T14:00:30;2.28;;;2.00;;
8040;SDS011;4063;48.140;10.250;2022-08-21T14:03:09;4.03;;;2.25;;
8040;SDS011;4063;48.140;10.250;2022-08-21T14:05:37;2.90;;;1.85;;
8040;SDS011;4063;48.140;10.250;2022-08-21T14:08:08;3.40;;;2.40;;
8040;SDS011;4063;48.140;10.250;2022-08-21T14:10:40;2.50;;;1.88;;
8040;SDS011;4063;48.140;10.250;2022-08-21T14:13:06;2.75;;;1.90;;
8040;SDS011;4063;48.140;10.250;2022-08-21T14:15:33;3.55;;;2.10;;
8040;SDS011;4063;48.140;10.250;2022-08-21T14:18:07;5.15;;;2.03;;
8040;SDS011;4063;48.140;10.250;2022-08-21T14:20:34;5.15;;;2.28;;
8040;SDS011;4063;48.140;10.250;2022-08-21T14:23:01;2.58;;;2.08;;
8040;SDS011;4063;48.140;10.250;2022-08-21T14:25:29;2.60;;;2.10;;
8040;SDS011;4063;48.140;10.250;2022-08-21T14:30:28;3.10;;;2.00;;
8040;SDS011;4063;48.140;10.250;2022-08-21T14:32:54;2.60;;;2.00;;
8040;SDS011;4063;48.140;10.250;2022-08-21T14:35:20;3.30;;;2.13;;
8040;SDS011;4063;48.140;10.250;2022-08-21T14:37:46;3.10;;;2.05;;
8040;SDS011;4063;48.140;10.250;2022-08-21T14:40:15;3.35;;;2.20;;
8040;SDS011;4063;48.140;10.250;2022-08-21T14:42:42;2.10;;;1.90;;
8040;SDS011;4063;48.140;10.250;2022-08-21T14:45:30;1.90;;;1.70;;
8040;SDS011;4063;48.140;10.250;2022-08-21T14:47:55;3.58;;;1.90;;
8040;SDS011;4063;48.140;10.250;2022-08-21T14:50:21;3.60;;;1.70;;
8040;SDS011;4063;48.140;10.250;2022-08-21T14:52:47;2.08;;;1.88;;
8040;SDS011;4063;48.140;10.250;2022-08-21T14:55:17;2.03;;;1.83;;
8040;SDS011;4063;48.140;10.250;2022-08-21T14:57:44;2.92;;;2.15;;
8040;SDS011;4063;48.140;10.250;2022-08-21T15:00:12;2.28;;;2.08;;
8040;SDS011;4063;48.140;10.250;2022-08-21T15:02:39;4.03;;;2.33;;
8040;SDS011;4063;48.140;10.250;2022-08-21T15:05:05;2.25;;;2.05;;
8040;SDS011;4063;48.140;10.250;2022-08-21T15:07:31;3.30;;;2.03;;
8040;SDS011;4063;48.140;10.250;2022-08-21T15:09:57;3.08;;;1.75;;
8040;SDS011;4063;48.140;10.250;2022-08-21T15:12:23;2.60;;;1.83;;
8040;SDS011;4063;48.140;10.250;2022-08-21T15:14:50;3.60;;;2.05;;
8040;SDS011;4063;48.140;10.250;2022-08-21T15:17:16;1.98;;;1.75;;
8040;SDS011;4063;48.140;10.250;2022-08-21T15:19:42;2.33;;;1.83;;
8040;SDS011;4063;48.140;10.250;2022-08-21T15:22:08;2.25;;;1.92;;
8040;SDS011;4063;48.140;10.250;2022-08-21T15:24:34;3.38;;;1.95;;
8040;SDS011;4063;48.140;10.250;2022-08-21T15:27:01;2.22;;;1.70;;
8040;SDS011;4063;48.140;10.250;2022-08-21T15:29:28;2.45;;;1.70;;
8040;SDS011;4063;48.140;10.250;2022-08-21T15:31:55;1.95;;;1.70;;
8040;SDS011;4063;48.140;10.250;2022-08-21T15:34:22;2.25;;;1.65;;
8040;SDS011;4063;48.140;10.250;2022-08-21T15:36:48;3.65;;;1.73;;
8040;SDS011;4063;48.140;10.250;2022-08-21T15:39:14;2.30;;;2.03;;
8040;SDS011;4063;48.140;10.250;2022-08-21T15:41:41;5.80;;;2.35;;
8040;SDS011;4063;48.140;10.250;2022-08-21T15:44:08;2.63;;;1.75;;
8040;SDS011;4063;48.140;10.250;2022-08-21T15:46:36;2.72;;;1.80;;
8040;SDS011;4063;48.140;10.250;2022-08-21T15:49:02;1.63;;;1.50;;
8040;SDS011;4063;48.140;10.250;2022-08-21T15:51:29;2.65;;;1.65;;
8040;SDS011;4063;48.140;10.250;2022-08-21T15:53:55;5.32;;;2.15;;
8040;SDS011;4063;48.140;10.250;2022-08-21T15:56:22;2.35;;;1.80;;
8040;SDS011;4063;48.140;10.250;2022-08-21T15:58:53;1.95;;;1.75;;
8040;SDS011;4063;48.140;10.250;2022-08-21T16:01:19;2.55;;;2.00;;
8040;SDS011;4063;48.140;10.250;2022-08-21T16:03:47;2.00;;;1.70;;
8040;SDS011;4063;48.140;10.250;2022-08-21T16:06:14;1.65;;;1.55;;
8040;SDS011;4063;48.140;10.250;2022-08-21T16:08:40;4.35;;;2.08;;
8040;SDS011;4063;48.140;10.250;2022-08-21T16:11:06;2.75;;;1.90;;
8040;SDS011;4063;48.140;10.250;2022-08-21T16:13:36;2.58;;;2.00;;
8040;SDS011;4063;48.140;10.250;2022-08-21T16:16:04;3.92;;;1.70;;